createdAt,value
2022-08-22T00:01:35.274Z,53.29
2022-08-22T00:02:46.587Z,48.95
2022-08-22T00:04:17.057Z,53.77
2022-08-22T00:07:08.286Z,53.25
2022-08-22T00:10:25.201Z,53.30
2022-08-22T00:13:13.229Z,53.17
2022-08-22T00:15:52.695Z,52.86
2022-08-22T00:18:50.369Z,53.18
2022-08-22T00:21:42.399Z,53.02
2022-08-22T00:24:28.783Z,53.00
2022-08-22T00:27:08.269Z,53.50
2022-08-22T00:29:44.310Z,53.62
2022-08-22T00:32:34.046Z,53.88
2022-08-22T00:35:44.501Z,53.72
2022-08-22T00:38:21.943Z,53.76
2022-08-22T00:40:57.828Z,53.96
2022-08-22T00:43:49.059Z,53.93
2022-08-22T00:46:46.985Z,53.95
2022-08-22T00:49:53.978Z,54.50
2022-08-22T00:52:58.850Z,54.53
2022-08-22T00:55:44.989Z,54.51
2022-08-22T00:58:56.111Z,54.51
2022-08-22T01:01:36.468Z,54.77
2022-08-22T01:04:38.390Z,55.14
2022-08-22T01:07:16.977Z,55.01
2022-08-22T01:09:52.756Z,55.39
2022-08-22T01:13:01.604Z,55.32
2022-08-22T01:15:34.964Z,55.59
2022-08-22T01:18:36.845Z,55.76
2022-08-22T01:22:11.841Z,55.65
2022-08-22T01:25:21.452Z,55.38
2022-08-22T01:28:23.565Z,55.77
2022-08-22T01:31:41.340Z,55.96
2022-08-22T01:34:29.221Z,55.98
2022-08-22T01:37:33.183Z,55.70
2022-08-22T01:40:37.463Z,55.43
2022-08-22T01:44:24.346Z,55.58
2022-08-22T01:47:23.969Z,55.58
2022-08-22T01:50:02.502Z,55.45
2022-08-22T01:52:47.623Z,55.63
2022-08-22T01:55:36.766Z,56.45
2022-08-22T01:58:21.402Z,56.84
2022-08-22T02:01:08.548Z,56.99
2022-08-22T02:03:59.338Z,56.78
2022-08-22T02:07:04.193Z,57.74
2022-08-22T02:10:10.762Z,58.37
2022-08-22T02:12:52.539Z,58.96
2022-08-22T02:15:41.096Z,58.40
2022-08-22T02:18:28.862Z,58.78
2022-08-22T02:21:32.043Z,58.60
2022-08-22T02:24:14.655Z,58.76
2022-08-22T02:27:04.294Z,58.61
2022-08-22T02:29:55.854Z,58.72
2022-08-22T02:32:39.971Z,59.14
2022-08-22T02:35:12.724Z,59.06
2022-08-22T02:38:13.330Z,59.27
2022-08-22T02:40:53.299Z,59.52
2022-08-22T02:43:41.816Z,59.67
2022-08-22T02:46:58.335Z,59.48
2022-08-22T02:49:36.415Z,59.25
2022-08-22T02:52:56.670Z,59.63
2022-08-22T02:55:39.823Z,59.18
2022-08-22T02:58:36.778Z,59.36
2022-08-22T03:01:03.519Z,59.61
2022-08-22T03:03:41.388Z,59.62
2022-08-22T03:06:17.480Z,59.89
2022-08-22T03:09:22.168Z,59.46
2022-08-22T03:12:07.414Z,59.39
2022-08-22T03:14:45.731Z,59.67
2022-08-22T03:17:30.519Z,59.63
2022-08-22T03:20:14.843Z,59.54
2022-08-22T03:23:15.880Z,59.92
2022-08-22T03:26:07.456Z,60.28
2022-08-22T03:28:59.854Z,61.06
2022-08-22T03:31:31.030Z,61.72
2022-08-22T03:34:24.585Z,61.69
2022-08-22T03:37:06.417Z,61.95
2022-08-22T03:39:51.450Z,61.99
2022-08-22T03:42:45.630Z,62.24
2022-08-22T03:45:38.494Z,62.11
2022-08-22T03:48:48.801Z,62.78
2022-08-22T03:52:13.313Z,62.77
2022-08-22T03:55:04.617Z,62.45
2022-08-22T03:58:27.552Z,62.05
2022-08-22T04:01:21.820Z,62.17
2022-08-22T04:04:10.430Z,62.71
2022-08-22T04:07:04.936Z,63.44
2022-08-22T04:10:10.117Z,63.13
2022-08-22T04:13:15.228Z,63.10
2022-08-22T04:15:57.042Z,62.93
2022-08-22T04:18:35.925Z,63.97
2022-08-22T04:21:32.704Z,64.29
2022-08-22T04:24:30.272Z,64.38
2022-08-22T04:27:26.499Z,64.34
2022-08-22T04:30:02.649Z,64.48
2022-08-22T04:32:45.681Z,64.57
2022-08-22T04:35:38.445Z,64.42
2022-08-22T04:38:22.496Z,64.55
2022-08-22T04:41:25.901Z,64.94
2022-08-22T04:44:07.881Z,65.39
2022-08-22T04:47:08.203Z,65.59
2022-08-22T04:50:04.227Z,65.71
2022-08-22T04:53:19.897Z,65.58
2022-08-22T04:56:07.764Z,66.02
2022-08-22T04:58:46.824Z,65.88
2022-08-22T05:01:42.742Z,65.40
2022-08-22T05:04:19.409Z,65.64
2022-08-22T05:07:11.982Z,65.42
2022-08-22T05:09:57.833Z,65.79
2022-08-22T05:12:36.317Z,66.20
2022-08-22T05:15:13.591Z,66.78
2022-08-22T05:17:45.149Z,67.07
2022-08-22T05:20:21.227Z,66.88
2022-08-22T05:22:56.422Z,66.24
2022-08-22T05:25:33.372Z,65.93
2022-08-22T05:28:20.855Z,66.23
2022-08-22T05:30:48.988Z,66.36
2022-08-22T05:33:42.864Z,65.82
2022-08-22T05:36:20.140Z,65.37
2022-08-22T05:38:56.950Z,65.35
2022-08-22T05:41:28.841Z,65.39
2022-08-22T05:43:56.206Z,65.20
2022-08-22T05:46:34.938Z,65.22
2022-08-22T05:49:06.048Z,65.05
2022-08-22T05:51:56.791Z,65.06
2022-08-22T05:54:34.621Z,64.91
2022-08-22T05:57:28.820Z,64.82
2022-08-22T06:00:13.010Z,64.07
2022-08-22T06:03:04.472Z,63.75
2022-08-22T06:05:39.343Z,63.16
2022-08-22T06:08:31.225Z,63.03
2022-08-22T06:11:08.415Z,63.25
2022-08-22T06:13:47.257Z,63.71
2022-08-22T06:16:47.550Z,63.98
2022-08-22T06:19:20.058Z,63.72
2022-08-22T06:21:51.925Z,63.24
2022-08-22T06:24:28.149Z,62.47
2022-08-22T06:27:03.959Z,62.55
2022-08-22T06:29:40.690Z,62.40
2022-08-22T06:32:38.225Z,62.25
2022-08-22T06:35:28.118Z,62.01
2022-08-22T06:38:01.268Z,61.44
2022-08-22T06:40:29.934Z,61.55
2022-08-22T06:43:01.181Z,61.20
2022-08-22T06:45:32.687Z,60.57
2022-08-22T06:48:05.871Z,60.48
2022-08-22T06:50:40.572Z,61.02
2022-08-22T06:53:21.691Z,60.67
2022-08-22T06:56:02.551Z,60.10
2022-08-22T06:58:42.502Z,60.24
2022-08-22T07:01:20.083Z,59.77
2022-08-22T07:03:53.373Z,59.62
2022-08-22T07:06:49.937Z,58.59
2022-08-22T07:09:34.591Z,57.96
2022-08-22T07:12:18.819Z,57.67
2022-08-22T07:14:51.920Z,57.28
2022-08-22T07:17:28.467Z,57.07
2022-08-22T07:20:26.037Z,56.12
2022-08-22T07:23:00.307Z,55.73
2022-08-22T07:25:28.745Z,55.18
2022-08-22T07:28:51.186Z,54.69
2022-08-22T07:31:34.620Z,53.46
2022-08-22T07:34:32.393Z,53.25
2022-08-22T07:37:32.160Z,52.43
2022-08-22T07:40:38.467Z,52.18
2022-08-22T07:43:28.212Z,52.03
2022-08-22T07:46:08.920Z,51.48
2022-08-22T07:49:08.018Z,51.04
2022-08-22T07:51:46.620Z,50.95
2022-08-22T07:54:22.609Z,50.24
2022-08-22T07:57:15.569Z,49.50
2022-08-22T07:59:54.495Z,48.88
2022-08-22T08:02:24.044Z,48.48
2022-08-22T08:04:55.044Z,47.39
2022-08-22T08:07:26.742Z,47.00
2022-08-22T08:10:14.361Z,46.87
2022-08-22T08:12:52.703Z,47.32
2022-08-22T08:15:34.270Z,47.63
2022-08-22T08:18:11.400Z,47.75
2022-08-22T08:20:39.255Z,47.75
2022-08-22T08:23:10.674Z,47.42
2022-08-22T08:25:59.283Z,46.17
2022-08-22T08:28:36.045Z,46.14
2022-08-22T08:31:18.991Z,45.35
2022-08-22T08:33:50.265Z,44.72
2022-08-22T08:36:35.978Z,44.28
2022-08-22T08:39:14.807Z,43.94
2022-08-22T08:42:02.653Z,43.44
2022-08-22T08:45:18.179Z,42.94
2022-08-22T08:48:20.922Z,42.25
2022-08-22T08:51:18.716Z,42.05
2022-08-22T08:54:26.618Z,41.98
2022-08-22T08:57:04.087Z,41.02
2022-08-22T09:00:14.375Z,41.69
2022-08-22T09:06:14.425Z,40.00
2022-08-22T09:09:18.792Z,39.39
2022-08-22T09:12:01.417Z,39.25
2022-08-22T09:14:53.937Z,39.83
2022-08-22T09:18:10.639Z,38.52
2022-08-22T09:20:49.220Z,39.12
2022-08-22T09:24:05.186Z,38.43
2022-08-22T09:26:52.103Z,37.34
2022-08-22T09:29:54.974Z,36.64
2022-08-22T09:33:05.137Z,38.15
2022-08-22T09:36:05.263Z,37.41
2022-08-22T09:38:48.281Z,37.94
2022-08-22T09:40:15.326Z,42.16
2022-08-22T09:41:33.768Z,35.45
2022-08-22T09:44:15.616Z,35.96
2022-08-22T09:47:31.383Z,39.15
2022-08-22T09:50:31.064Z,36.23
2022-08-22T09:53:21.171Z,37.30
2022-08-22T09:56:15.798Z,34.11
2022-08-22T09:59:06.583Z,32.28
2022-08-22T10:01:59.267Z,34.72
2022-08-22T10:04:58.509Z,33.22
2022-08-22T10:08:19.803Z,33.49
2022-08-22T10:11:08.109Z,33.08
2022-08-22T10:14:23.713Z,33.94
2022-08-22T10:17:11.710Z,33.26
2022-08-22T10:20:03.169Z,32.19
2022-08-22T10:22:56.957Z,32.87
2022-08-22T10:26:08.051Z,33.37
2022-08-22T10:28:56.306Z,32.53
2022-08-22T10:31:58.469Z,31.09
2022-08-22T10:34:37.006Z,32.67
2022-08-22T10:37:46.133Z,31.05
2022-08-22T10:40:37.166Z,30.23
2022-08-22T10:43:40.785Z,29.71
2022-08-22T10:46:17.184Z,31.06
2022-08-22T10:49:08.032Z,28.42
2022-08-22T10:51:49.642Z,28.89
2022-08-22T10:54:51.332Z,27.62
2022-08-22T10:58:05.968Z,26.89
2022-08-22T11:00:59.670Z,27.33
2022-08-22T11:03:55.691Z,31.79
2022-08-22T11:06:59.467Z,26.73
2022-08-22T11:09:43.192Z,27.45
2022-08-22T11:12:52.426Z,26.80
2022-08-22T11:16:04.175Z,24.61
2022-08-22T11:19:15.397Z,25.93
2022-08-22T11:22:15.224Z,25.87
2022-08-22T11:25:14.108Z,25.34
2022-08-22T11:28:22.986Z,26.74
2022-08-22T11:31:37.910Z,25.35
2022-08-22T11:34:55.493Z,23.49
2022-08-22T11:38:01.550Z,21.49
2022-08-22T11:41:04.720Z,22.01
2022-08-22T11:43:46.437Z,22.47
2022-08-22T11:46:42.844Z,20.85
2022-08-22T11:49:32.628Z,20.49
2022-08-22T11:52:51.669Z,20.48
2022-08-22T11:55:42.939Z,23.35
2022-08-22T11:58:54.091Z,20.15
2022-08-22T12:01:37.348Z,20.44
2022-08-22T12:04:33.694Z,21.88
2022-08-22T12:07:29.137Z,19.74
2022-08-22T12:10:19.079Z,22.95
2022-08-22T12:13:37.710Z,20.55
2022-08-22T12:16:25.750Z,19.50
2022-08-22T12:19:12.189Z,19.66
2022-08-22T12:22:36.341Z,19.58
2022-08-22T12:25:39.650Z,18.90
2022-08-22T12:28:39.894Z,19.15
2022-08-22T12:31:58.875Z,19.10
2022-08-22T12:35:19.343Z,21.01
2022-08-22T12:38:28.316Z,19.39
2022-08-22T12:41:28.340Z,18.59
2022-08-22T12:44:30.915Z,18.59
2022-08-22T12:47:32.044Z,17.83
2022-08-22T12:50:24.353Z,18.48
2022-08-22T12:53:19.671Z,18.30
2022-08-22T12:56:24.283Z,18.34
2022-08-22T12:59:35.608Z,17.97
2022-08-22T13:02:36.040Z,17.09
2022-08-22T13:05:19.646Z,17.33
2022-08-22T13:08:04.651Z,17.42
2022-08-22T13:11:04.899Z,17.67
2022-08-22T13:13:56.235Z,17.56
2022-08-22T13:16:34.470Z,18.58
2022-08-22T13:19:35.305Z,17.98
2022-08-22T13:22:12.617Z,17.94
2022-08-22T13:24:52.637Z,17.73
2022-08-22T13:27:30.479Z,17.66
2022-08-22T13:30:07.472Z,17.82
2022-08-22T13:32:45.026Z,18.32
2022-08-22T13:35:52.107Z,19.03
2022-08-22T13:38:46.843Z,18.34
2022-08-22T13:41:24.831Z,17.72
2022-08-22T13:44:06.978Z,17.63
2022-08-22T13:46:48.317Z,17.29
2022-08-22T13:50:07.921Z,17.28
2022-08-22T13:52:58.523Z,17.61
2022-08-22T13:55:32.734Z,17.59
2022-08-22T13:58:30.822Z,17.44
2022-08-22T14:01:15.419Z,17.49
2022-08-22T14:04:00.929Z,17.75
2022-08-22T14:06:41.503Z,18.16
2022-08-22T14:09:29.540Z,18.31
2022-08-22T14:12:21.079Z,17.44
2022-08-22T14:14:58.012Z,19.15
2022-08-22T14:17:51.950Z,20.30
2022-08-22T14:20:32.178Z,21.57
2022-08-22T14:23:29.320Z,21.61
2022-08-22T14:25:57.469Z,21.95
2022-08-22T14:28:38.529Z,21.32
2022-08-22T14:31:14.265Z,20.24
2022-08-22T14:33:52.590Z,19.78
2022-08-22T14:36:47.097Z,20.21
2022-08-22T14:39:45.862Z,21.24
2022-08-22T14:42:24.560Z,21.89
2022-08-22T14:45:13.258Z,22.55
2022-08-22T14:48:29.985Z,22.40
2022-08-22T14:50:55.624Z,21.17
2022-08-22T14:53:30.951Z,20.44
2022-08-22T14:56:23.356Z,20.69
2022-08-22T14:59:04.381Z,20.70
2022-08-22T15:01:55.443Z,20.53
2022-08-22T15:04:37.972Z,19.86
2022-08-22T15:07:07.494Z,19.76
2022-08-22T15:09:54.236Z,20.18
2022-08-22T15:12:32.890Z,21.22
2022-08-22T15:15:06.964Z,21.35
2022-08-22T15:17:45.998Z,21.31
2022-08-22T15:20:28.080Z,22.22
2022-08-22T15:23:02.156Z,22.74
2022-08-22T15:25:41.006Z,22.84
2022-08-22T15:28:14.426Z,22.93
2022-08-22T15:31:06.906Z,23.10
2022-08-22T15:33:43.158Z,23.46
2022-08-22T15:36:25.428Z,23.96
2022-08-22T15:38:56.864Z,24.30
2022-08-22T15:41:43.513Z,24.20
2022-08-22T15:44:30.842Z,24.59
2022-08-22T15:47:40.399Z,25.39
2022-08-22T15:50:32.624Z,25.25
2022-08-22T15:53:45.953Z,25.55
2022-08-22T15:56:19.898Z,25.54
2022-08-22T15:59:13.249Z,25.53
2022-08-22T16:02:16.712Z,25.61
2022-08-22T16:04:51.766Z,25.64
2022-08-22T16:07:57.285Z,25.42
2022-08-22T16:10:24.037Z,26.04
2022-08-22T16:13:10.403Z,25.80
2022-08-22T16:15:55.927Z,26.48
2022-08-22T16:18:42.501Z,26.75
2022-08-22T16:21:15.916Z,26.65
2022-08-22T16:23:56.617Z,26.48
2022-08-22T16:26:30.877Z,27.26
2022-08-22T16:29:12.379Z,27.26
2022-08-22T16:32:01.406Z,27.89
2022-08-22T16:34:37.409Z,27.61
2022-08-22T16:37:17.945Z,27.59
2022-08-22T16:40:03.479Z,27.38
2022-08-22T16:42:51.319Z,28.09
2022-08-22T16:45:33.853Z,27.95
2022-08-22T16:48:27.184Z,27.54
2022-08-22T16:51:21.174Z,28.12
2022-08-22T16:54:07.354Z,27.75
2022-08-22T16:57:02.109Z,28.39
2022-08-22T16:59:52.517Z,29.29
2022-08-22T17:02:39.173Z,30.05
2022-08-22T17:05:32.341Z,30.53
2022-08-22T17:08:09.184Z,30.98
2022-08-22T17:11:10.312Z,31.36
2022-08-22T17:14:20.571Z,31.77
2022-08-22T17:17:41.494Z,31.69
2022-08-22T17:20:39.482Z,32.05
2022-08-22T17:23:28.238Z,32.44
2022-08-22T17:26:49.566Z,32.47
2022-08-22T17:29:47.133Z,32.68
2022-08-22T17:32:34.919Z,32.67
2022-08-22T17:35:33.824Z,32.69
2022-08-22T17:38:47.634Z,32.90
2022-08-22T17:41:33.608Z,33.28
2022-08-22T17:44:31.907Z,33.26
2022-08-22T17:47:18.661Z,33.11
2022-08-22T17:50:22.647Z,33.26
2022-08-22T17:53:03.510Z,33.49
2022-08-22T17:55:49.495Z,34.41
2022-08-22T17:58:37.745Z,34.67
2022-08-22T18:02:13.332Z,35.58
2022-08-22T18:05:20.620Z,35.79
2022-08-22T18:08:06.206Z,36.30
2022-08-22T18:11:11.826Z,36.49
2022-08-22T18:14:08.704Z,36.64
2022-08-22T18:16:54.457Z,37.49
2022-08-22T18:19:39.777Z,37.30
2022-08-22T18:22:34.955Z,37.94
2022-08-22T18:25:40.742Z,37.50
2022-08-22T18:28:25.392Z,37.71
2022-08-22T18:31:05.626Z,38.02
2022-08-22T18:33:41.517Z,38.20
2022-08-22T18:36:25.412Z,38.79
2022-08-22T18:39:05.750Z,38.74
2022-08-22T18:41:45.433Z,39.04
2022-08-22T18:44:21.908Z,39.25
2022-08-22T18:46:52.803Z,39.49
2022-08-22T18:49:19.674Z,40.02
2022-08-22T18:52:08.290Z,40.18
2022-08-22T18:54:49.686Z,40.24
2022-08-22T18:58:12.474Z,40.39
2022-08-22T19:00:57.277Z,40.62
2022-08-22T19:04:08.556Z,40.95
2022-08-22T19:06:56.668Z,41.38
2022-08-22T19:10:11.638Z,41.23
2022-08-22T19:13:09.007Z,41.22
2022-08-22T19:15:50.951Z,41.05
2022-08-22T19:18:42.032Z,42.21
2022-08-22T19:21:39.040Z,42.40
2022-08-22T19:24:55.131Z,43.31
2022-08-22T19:27:31.370Z,43.48
2022-08-22T19:30:04.752Z,43.61
2022-08-22T19:32:52.840Z,44.48
2022-08-22T19:35:28.882Z,44.79
2022-08-22T19:38:03.790Z,44.47
2022-08-22T19:40:45.787Z,44.34
2022-08-22T19:43:37.958Z,44.02
2022-08-22T19:46:11.892Z,43.92
2022-08-22T19:48:52.285Z,44.35
2022-08-22T19:51:19.084Z,44.91
2022-08-22T19:54:00.851Z,45.33
2022-08-22T19:57:02.597Z,45.45
2022-08-22T19:59:53.724Z,45.82
2022-08-22T20:02:37.506Z,46.73
2022-08-22T20:05:47.442Z,47.58
2022-08-22T20:08:45.305Z,48.06
2022-08-22T20:11:37.699Z,48.58
2022-08-22T20:14:30.017Z,48.49
2022-08-22T20:17:09.201Z,48.84
2022-08-22T20:22:52.917Z,48.96
2022-08-22T20:25:44.232Z,49.18
2022-08-22T20:28:48.793Z,49.32
2022-08-22T20:31:27.102Z,48.94
2022-08-22T20:34:15.897Z,49.09
2022-08-22T20:36:46.585Z,49.76
2022-08-22T20:39:24.485Z,49.87
2022-08-22T20:42:14.389Z,50.48
2022-08-22T20:44:47.384Z,51.20
2022-08-22T20:47:36.229Z,51.24
2022-08-22T20:50:12.008Z,50.60
2022-08-22T20:52:51.855Z,49.90
2022-08-22T20:55:31.933Z,49.74
2022-08-22T20:58:04.961Z,49.45
2022-08-22T21:00:42.069Z,49.50
2022-08-22T21:03:31.944Z,50.01
2022-08-22T21:06:16.721Z,50.48
2022-08-22T21:08:47.327Z,51.13
2022-08-22T21:11:40.964Z,51.43
2022-08-22T21:14:23.983Z,50.67
2022-08-22T21:16:51.509Z,50.90
2022-08-22T21:19:28.098Z,50.95
2022-08-22T21:22:15.266Z,50.38
2022-08-22T21:24:42.397Z,50.17
2022-08-22T21:27:14.396Z,50.37
2022-08-22T21:29:46.800Z,50.59
2022-08-22T21:32:13.528Z,50.27
2022-08-22T21:34:48.899Z,50.17
2022-08-22T21:37:39.783Z,50.11
2022-08-22T21:40:15.832Z,49.99
2022-08-22T21:43:07.509Z,49.87
2022-08-22T21:45:44.655Z,49.59
2022-08-22T21:48:43.625Z,50.16
2022-08-22T21:51:45.185Z,50.56
2022-08-22T21:54:30.005Z,50.94
2022-08-22T21:57:18.437Z,50.96
2022-08-22T21:59:59.750Z,50.82
2022-08-22T22:02:39.669Z,51.00
2022-08-22T22:05:17.952Z,50.78
2022-08-22T22:07:47.432Z,51.23
2022-08-22T22:10:18.605Z,51.23
2022-08-22T22:12:49.220Z,51.22
2022-08-22T22:15:22.440Z,51.44
2022-08-22T22:17:49.990Z,51.85
2022-08-22T22:20:19.532Z,51.96
2022-08-22T22:22:47.334Z,52.58
2022-08-22T22:25:38.762Z,52.74
2022-08-22T22:28:41.517Z,53.02
2022-08-22T22:31:09.368Z,53.08
2022-08-22T22:33:40.093Z,52.86
2022-08-22T22:36:27.969Z,52.85
2022-08-22T22:38:55.326Z,52.74
2022-08-22T22:41:25.420Z,52.22
2022-08-22T22:43:53.688Z,52.44
2022-08-22T22:46:22.107Z,52.27
2022-08-22T22:48:48.988Z,52.10
2022-08-22T22:51:16.107Z,52.28
2022-08-22T22:53:44.752Z,53.00
2022-08-22T22:56:17.924Z,53.04
2022-08-22T22:58:50.555Z,53.79
2022-08-22T23:01:27.214Z,54.39
2022-08-22T23:03:57.348Z,54.68
2022-08-22T23:06:27.131Z,55.02
2022-08-22T23:08:57.681Z,54.39
2022-08-22T23:11:30.525Z,54.18
2022-08-22T23:13:57.611Z,53.61
2022-08-22T23:16:28.811Z,53.70
2022-08-22T23:18:56.700Z,54.64
2022-08-22T23:21:29.699Z,55.56
2022-08-22T23:23:59.447Z,54.88
2022-08-22T23:26:28.313Z,54.74
2022-08-22T23:28:56.533Z,54.09
2022-08-22T23:31:48.157Z,54.25
2022-08-22T23:34:22.703Z,53.92
2022-08-22T23:36:52.553Z,54.04
2022-08-22T23:39:22.372Z,53.56
2022-08-22T23:41:50.940Z,53.84
2022-08-22T23:44:23.048Z,53.94
2022-08-22T23:46:51.173Z,54.25
2022-08-22T23:49:19.202Z,53.90
2022-08-22T23:51:48.422Z,53.67
2022-08-22T23:54:16.927Z,53.32
2022-08-22T23:56:48.485Z,53.75
2022-08-22T23:59:20.662Z,53.56
